Time;durP1;ratioP1;P1;durP2;ratioP2;P2;SDS_P1;SDS_P2;PMS_P1;PMS_P2;Temp;Humidity;BMP_temperature;BMP_pressure;BME280_temperature;BME280_humidity;BME280_pressure;Samples;Min_cycle;Max_cycle;Signal;HPM_P1;HPM_P2
2022/04/11 00:05:43;;;;;;;19.03;8.90;;;;;;;2.69;83.00;100331.14;740720;1154;115106;-74
2022/04/11 00:20:47;;;;;;;15.65;8.20;;;;;;;2.48;83.64;100344.34;739685;1153;114948;-74
2022/04/11 00:35:49;;;;;;;16.03;7.20;;;;;;;2.55;83.29;100344.86;739203;1153;114725;-74
2022/04/11 00:50:59;;;;;;;15.33;6.45;;;;;;;2.69;83.47;100353.63;739691;1154;114743;-75
2022/04/11 01:06:03;;;;;;;14.00;6.85;;;;;;;2.64;82.85;100374.62;740061;1153;115461;-72
2022/04/11 01:21:09;;;;;;;15.45;6.60;;;;;;;2.53;83.59;100379.52;739507;1153;115509;-73
2022/04/11 01:36:11;;;;;;;18.23;9.55;;;;;;;2.56;82.98;100387.12;739248;1152;115619;-73
2022/04/11 01:51:14;;;;;;;16.60;7.00;;;;;;;2.46;82.45;100397.14;739391;1153;115610;-72
2022/04/11 02:06:16;;;;;;;15.23;6.80;;;;;;;2.33;82.71;100392.58;739145;1152;114871;-73
2022/04/11 02:21:19;;;;;;;11.43;6.38;;;;;;;2.17;83.13;100402.07;739250;1155;114843;-73
2022/04/11 02:36:21;;;;;;;9.60;5.75;;;;;;;2.21;83.17;100411.34;739753;1153;115411;-75
2022/04/11 02:51:24;;;;;;;13.47;6.57;;;;;;;2.14;83.12;100412.59;741585;1153;114680;-73
2022/04/11 03:06:26;;;;;;;18.30;7.50;;;;;;;2.04;82.91;100407.02;741828;1153;114810;-72
2022/04/11 03:21:28;;;;;;;10.63;5.43;;;;;;;2.08;83.21;100411.13;740022;1155;114076;-72
2022/04/11 03:36:31;;;;;;;16.38;7.15;;;;;;;2.02;82.94;100437.34;740247;1153;114907;-73
2022/04/11 03:51:34;;;;;;;13.65;5.90;;;;;;;2.07;83.27;100437.09;740425;1155;114550;-73
2022/04/11 04:06:36;;;;;;;15.68;5.45;;;;;;;2.21;83.86;100441.59;740101;1153;114951;-74
2022/04/11 04:21:38;;;;;;;10.53;5.20;;;;;;;2.29;83.90;100454.97;739459;1155;114751;-72
2022/04/11 04:36:40;;;;;;;14.00;6.13;;;;;;;2.47;84.90;100466.16;739394;1153;114731;-73
2022/04/11 04:51:42;;;;;;;15.23;6.83;;;;;;;2.68;85.21;100471.98;739348;1153;116020;-72
2022/04/11 05:06:44;;;;;;;14.05;6.80;;;;;;;3.00;85.37;100483.22;739440;1155;115199;-72
2022/04/11 05:21:46;;;;;;;15.08;8.15;;;;;;;3.12;85.51;100489.50;738922;1153;115173;-79
2022/04/11 05:36:49;;;;;;;16.03;8.28;;;;;;;3.78;86.44;100492.83;739254;1153;114689;-79
2022/04/11 05:51:51;;;;;;;15.63;8.35;;;;;;;4.23;85.17;100507.63;739381;1153;115594;-80
2022/04/11 06:06:53;;;;;;;28.63;18.80;;;;;;;4.50;85.96;100506.02;739630;1154;114822;-79
2022/04/11 06:21:55;;;;;;;29.13;14.50;;;;;;;4.95;85.24;100513.74;739703;1155;115927;-78
2022/04/11 06:36:57;;;;;;;19.20;11.03;;;;;;;5.37;85.13;100534.61;739862;1153;114660;-75
2022/04/11 06:52:00;;;;;;;12.80;7.97;;;;;;;5.73;84.39;100542.77;740369;1155;115729;-73
2022/04/11 07:07:02;;;;;;;22.20;9.43;;;;;;;5.92;83.82;100545.05;739819;1153;115514;-73
2022/04/11 07:22:10;;;;;;;19.45;7.83;;;;;;;6.90;82.95;100558.61;740570;1155;114173;-75
2022/04/11 07:37:13;;;;;;;23.38;7.98;;;;;;;7.60;80.52;100564.21;739932;1153;115466;-75
2022/04/11 07:52:16;;;;;;;9.50;5.25;;;;;;;8.73;79.60;100566.48;743315;1154;114506;-78
2022/04/11 08:07:19;;;;;;;11.50;5.03;;;;;;;8.66;75.11;100568.73;739440;1153;115407;-77
2022/04/11 08:22:27;;;;;;;12.85;5.08;;;;;;;8.86;73.48;100563.78;739830;1155;114927;-77
2022/04/11 08:37:29;;;;;;;14.18;3.50;;;;;;;10.27;69.32;100561.39;739640;1153;115403;-74
2022/04/11 08:52:33;;;;;;;14.55;5.33;;;;;;;8.98;65.84;100565.44;739510;1155;115518;-73
2022/04/11 09:07:50;;;;;;;15.43;7.20;;;;;;;9.99;64.36;100571.52;739166;1153;115778;-73
2022/04/11 09:22:57;;;;;;;18.35;10.45;;;;;;;9.88;61.30;100571.53;740068;1155;115765;-73
2022/04/11 09:38:12;;;;;;;37.50;14.87;;;;;;;9.45;60.42;100576.62;740188;1153;115830;-73
2022/04/11 09:53:16;;;;;;;9.93;4.18;;;;;;;9.85;60.44;100577.03;739574;1153;115819;-73
2022/04/11 10:08:19;;;;;;;11.77;4.93;;;;;;;8.85;58.72;100581.23;739187;1155;114621;-73
2022/04/11 10:23:34;;;;;;;13.77;8.93;;;;;;;8.72;59.57;100594.41;739195;1153;115468;-76
2022/04/11 10:39:11;;;;;;;12.07;5.83;;;;;;;8.65;60.87;100598.45;739545;1153;115136;-76
2022/04/11 10:54:18;;;;;;;15.55;6.28;;;;;;;9.16;60.24;100591.99;740125;1154;115781;-75
2022/04/11 11:09:41;;;;;;;12.10;6.48;;;;;;;9.80;59.42;100586.06;740314;1154;114100;-76
2022/04/11 13:40:09;;;;;;;9.65;5.48;;;;;;;9.66;55.82;100574.09;714622;1174;23118;-76
2022/04/11 13:55:11;;;;;;;91.20;35.00;;;;;;;10.42;53.27;100554.88;714196;1174;114042;-76
2022/04/11 14:10:13;;;;;;;52.28;19.55;;;;;;;10.92;52.98;100561.27;714344;1177;114638;-75
2022/04/11 14:25:16;;;;;;;32.47;14.73;;;;;;;10.19;52.37;100563.78;713559;1175;115548;-71
2022/04/11 14:40:40;;;;;;;17.03;11.03;;;;;;;10.02;53.64;100545.04;713562;1177;115325;-74
2022/04/11 14:55:44;;;;;;;26.60;12.75;;;;;;;12.31;50.83;100549.10;714629;1176;115448;-72
2022/04/11 15:10:47;;;;;;;47.30;16.93;;;;;;;10.22;52.06;100550.44;713799;1175;114606;-76
2022/04/11 15:25:50;;;;;;;26.27;9.97;;;;;;;10.19;51.79;100550.67;714383;1176;114853;-76
2022/04/11 15:40:52;;;;;;;12.57;6.13;;;;;;;10.20;52.47;100549.72;713767;1175;114986;-76
2022/04/11 15:55:55;;;;;;;15.38;11.53;;;;;;;10.20;53.18;100545.33;713859;1175;113706;-77
2022/04/11 16:10:58;;;;;;;11.95;5.40;;;;;;;9.94;53.21;100544.84;714130;1175;114037;-72
2022/04/11 16:26:01;;;;;;;12.53;5.77;;;;;;;9.72;53.04;100546.55;714063;1175;113889;-76
2022/04/11 16:41:08;;;;;;;17.67;7.97;;;;;;;9.76;53.63;100547.97;713638;1175;115030;-75
2022/04/11 16:56:12;;;;;;;89.45;32.68;;;;;;;9.53;54.75;100568.16;713895;1174;114563;-74
